sensor_id;sensor_type;location;lat;lon;timestamp;temperature;humidity
66670;DHT22;53568;52.164;4.472;2023-10-19T00:00:40;13.67;84.63
66670;DHT22;53568;52.164;4.472;2023-10-19T00:03:12;13.67;84.55
66670;DHT22;53568;52.164;4.472;2023-10-19T00:05:38;13.73;84.60
66670;DHT22;53568;52.164;4.472;2023-10-19T00:08:06;13.75;84.54
66670;DHT22;53568;52.164;4.472;2023-10-19T00:10:54;13.78;84.57
66670;DHT22;53568;52.164;4.472;2023-10-19T00:13:36;13.77;84.80
66670;DHT22;53568;52.164;4.472;2023-10-19T00:16:07;13.89;84.37
66670;DHT22;53568;52.164;4.472;2023-10-19T00:18:39;13.85;84.61
66670;DHT22;53568;52.164;4.472;2023-10-19T00:21:08;13.94;84.52
66670;DHT22;53568;52.164;4.472;2023-10-19T00:23:46;13.92;84.71
66670;DHT22;53568;52.164;4.472;2023-10-19T00:26:16;13.95;84.69
66670;DHT22;53568;52.164;4.472;2023-10-19T00:28:51;14.02;84.65
66670;DHT22;53568;52.164;4.472;2023-10-19T00:31:21;13.97;84.82
66670;DHT22;53568;52.164;4.472;2023-10-19T00:33:47;14.07;84.77
66670;DHT22;53568;52.164;4.472;2023-10-19T00:36:17;14.04;84.96
66670;DHT22;53568;52.164;4.472;2023-10-19T00:38:45;14.08;84.79
66670;DHT22;53568;52.164;4.472;2023-10-19T00:41:14;14.00;85.07
66670;DHT22;53568;52.164;4.472;2023-10-19T00:43:45;14.05;85.25
66670;DHT22;53568;52.164;4.472;2023-10-19T00:46:20;14.17;84.85
66670;DHT22;53568;52.164;4.472;2023-10-19T00:48:50;14.18;84.98
66670;DHT22;53568;52.164;4.472;2023-10-19T00:51:21;14.21;84.93
66670;DHT22;53568;52.164;4.472;2023-10-19T00:54:13;14.22;85.03
66670;DHT22;53568;52.164;4.472;2023-10-19T00:56:46;14.35;84.88
66670;DHT22;53568;52.164;4.472;2023-10-19T00:59:19;14.31;84.83
66670;DHT22;53568;52.164;4.472;2023-10-19T01:01:55;14.22;85.42
66670;DHT22;53568;52.164;4.472;2023-10-19T01:04:29;14.18;85.47
66670;DHT22;53568;52.164;4.472;2023-10-19T01:06:59;14.31;85.38
66670;DHT22;53568;52.164;4.472;2023-10-19T01:09:37;14.43;85.03
66670;DHT22;53568;52.164;4.472;2023-10-19T01:12:04;14.46;84.95
66670;DHT22;53568;52.164;4.472;2023-10-19T01:15:14;14.45;85.02
66670;DHT22;53568;52.164;4.472;2023-10-19T01:17:45;14.46;85.14
66670;DHT22;53568;52.164;4.472;2023-10-19T01:20:14;14.53;85.11
66670;DHT22;53568;52.164;4.472;2023-10-19T01:22:52;14.59;84.96
66670;DHT22;53568;52.164;4.472;2023-10-19T01:25:46;14.62;85.02
66670;DHT22;53568;52.164;4.472;2023-10-19T01:28:18;14.68;84.99
66670;DHT22;53568;52.164;4.472;2023-10-19T01:30:44;14.61;85.34
66670;DHT22;53568;52.164;4.472;2023-10-19T01:33:11;14.61;85.73
66670;DHT22;53568;52.164;4.472;2023-10-19T01:35:42;14.73;85.33
66670;DHT22;53568;52.164;4.472;2023-10-19T01:38:27;14.87;85.22
66670;DHT22;53568;52.164;4.472;2023-10-19T01:40:56;14.96;84.99
66670;DHT22;53568;52.164;4.472;2023-10-19T01:43:28;15.00;84.90
66670;DHT22;53568;52.164;4.472;2023-10-19T01:45:57;15.03;84.98
66670;DHT22;53568;52.164;4.472;2023-10-19T01:48:24;15.07;85.04
66670;DHT22;53568;52.164;4.472;2023-10-19T01:51:04;15.13;84.79
66670;DHT22;53568;52.164;4.472;2023-10-19T01:53:31;15.13;84.98
66670;DHT22;53568;52.164;4.472;2023-10-19T01:55:57;15.10;84.93
66670;DHT22;53568;52.164;4.472;2023-10-19T01:58:25;15.19;84.99
66670;DHT22;53568;52.164;4.472;2023-10-19T02:00:53;15.24;84.95
66670;DHT22;53568;52.164;4.472;2023-10-19T02:03:28;15.23;84.95
66670;DHT22;53568;52.164;4.472;2023-10-19T02:06:00;15.27;85.01
66670;DHT22;53568;52.164;4.472;2023-10-19T02:08:36;15.30;85.11
66670;DHT22;53568;52.164;4.472;2023-10-19T02:11:06;15.37;85.03
66670;DHT22;53568;52.164;4.472;2023-10-19T02:13:41;15.49;84.98
66670;DHT22;53568;52.164;4.472;2023-10-19T02:16:07;15.55;84.89
66670;DHT22;53568;52.164;4.472;2023-10-19T02:18:33;15.60;84.91
66670;DHT22;53568;52.164;4.472;2023-10-19T02:21:01;15.67;84.89
66670;DHT22;53568;52.164;4.472;2023-10-19T02:23:29;15.70;85.02
66670;DHT22;53568;52.164;4.472;2023-10-19T02:25:55;15.71;85.40
66670;DHT22;53568;52.164;4.472;2023-10-19T02:28:21;15.80;85.29
66670;DHT22;53568;52.164;4.472;2023-10-19T02:30:54;15.94;85.05
66670;DHT22;53568;52.164;4.472;2023-10-19T02:33:20;16.00;84.97
66670;DHT22;53568;52.164;4.472;2023-10-19T02:35:46;15.91;85.24
66670;DHT22;53568;52.164;4.472;2023-10-19T02:38:13;15.98;85.15
66670;DHT22;53568;52.164;4.472;2023-10-19T02:40:39;16.04;85.09
66670;DHT22;53568;52.164;4.472;2023-10-19T02:43:04;16.11;85.07
66670;DHT22;53568;52.164;4.472;2023-10-19T02:45:31;16.16;84.92
66670;DHT22;53568;52.164;4.472;2023-10-19T02:47:58;16.22;84.81
66670;DHT22;53568;52.164;4.472;2023-10-19T02:50:23;16.21;84.91
66670;DHT22;53568;52.164;4.472;2023-10-19T02:52:52;16.26;84.91
66670;DHT22;53568;52.164;4.472;2023-10-19T02:55:19;16.29;84.73
66670;DHT22;53568;52.164;4.472;2023-10-19T02:57:48;16.24;84.81
66670;DHT22;53568;52.164;4.472;2023-10-19T03:00:15;16.26;84.74
66670;DHT22;53568;52.164;4.472;2023-10-19T03:02:45;16.29;84.62
66670;DHT22;53568;52.164;4.472;2023-10-19T03:05:11;16.26;84.76
66670;DHT22;53568;52.164;4.472;2023-10-19T03:07:43;16.26;84.87
66670;DHT22;53568;52.164;4.472;2023-10-19T03:10:10;16.33;84.68
66670;DHT22;53568;52.164;4.472;2023-10-19T03:13:00;16.36;84.29
66670;DHT22;53568;52.164;4.472;2023-10-19T03:15:30;16.36;84.31
66670;DHT22;53568;52.164;4.472;2023-10-19T03:17:58;16.28;84.27
66670;DHT22;53568;52.164;4.472;2023-10-19T03:20:23;16.38;84.15
66670;DHT22;53568;52.164;4.472;2023-10-19T03:22:51;16.30;84.31
66670;DHT22;53568;52.164;4.472;2023-10-19T03:25:16;16.26;84.51
66670;DHT22;53568;52.164;4.472;2023-10-19T03:28:00;16.22;84.60
66670;DHT22;53568;52.164;4.472;2023-10-19T03:30:37;16.26;84.42
66670;DHT22;53568;52.164;4.472;2023-10-19T03:33:07;16.26;84.38
66670;DHT22;53568;52.164;4.472;2023-10-19T03:35:38;16.28;84.14
66670;DHT22;53568;52.164;4.472;2023-10-19T03:38:07;16.18;84.08
66670;DHT22;53568;52.164;4.472;2023-10-19T03:40:43;16.21;84.05
66670;DHT22;53568;52.164;4.472;2023-10-19T03:43:17;16.19;84.01
66670;DHT22;53568;52.164;4.472;2023-10-19T03:45:44;16.18;83.99
66670;DHT22;53568;52.164;4.472;2023-10-19T03:48:17;16.26;83.62
66670;DHT22;53568;52.164;4.472;2023-10-19T03:50:43;16.28;83.33
66670;DHT22;53568;52.164;4.472;2023-10-19T03:53:09;16.24;83.34
66670;DHT22;53568;52.164;4.472;2023-10-19T03:55:38;16.16;83.24
66670;DHT22;53568;52.164;4.472;2023-10-19T03:58:04;16.18;83.43
66670;DHT22;53568;52.164;4.472;2023-10-19T04:00:30;16.18;83.23
66670;DHT22;53568;52.164;4.472;2023-10-19T04:02:59;16.11;83.24
66670;DHT22;53568;52.164;4.472;2023-10-19T04:05:25;16.19;83.38
66670;DHT22;53568;52.164;4.472;2023-10-19T04:07:51;16.19;83.24
66670;DHT22;53568;52.164;4.472;2023-10-19T04:10:21;16.24;83.09
66670;DHT22;53568;52.164;4.472;2023-10-19T04:12:56;16.29;82.80
66670;DHT22;53568;52.164;4.472;2023-10-19T04:15:23;16.28;82.74
66670;DHT22;53568;52.164;4.472;2023-10-19T04:17:51;16.19;82.78
66670;DHT22;53568;52.164;4.472;2023-10-19T04:20:18;16.25;82.69
66670;DHT22;53568;52.164;4.472;2023-10-19T04:22:44;16.21;82.70
66670;DHT22;53568;52.164;4.472;2023-10-19T04:25:12;16.18;82.51
66670;DHT22;53568;52.164;4.472;2023-10-19T04:27:55;16.19;82.56
66670;DHT22;53568;52.164;4.472;2023-10-19T04:30:22;16.24;82.61
66670;DHT22;53568;52.164;4.472;2023-10-19T04:32:49;16.29;82.21
66670;DHT22;53568;52.164;4.472;2023-10-19T04:35:15;16.29;82.03
66670;DHT22;53568;52.164;4.472;2023-10-19T04:37:49;16.32;81.92
66670;DHT22;53568;52.164;4.472;2023-10-19T04:40:16;16.26;81.90
66670;DHT22;53568;52.164;4.472;2023-10-19T04:42:42;16.24;81.95
66670;DHT22;53568;52.164;4.472;2023-10-19T04:45:07;16.26;81.96
66670;DHT22;53568;52.164;4.472;2023-10-19T04:47:34;16.28;82.03
66670;DHT22;53568;52.164;4.472;2023-10-19T04:50:04;16.30;81.94
66670;DHT22;53568;52.164;4.472;2023-10-19T04:52:31;16.36;81.84
66670;DHT22;53568;52.164;4.472;2023-10-19T04:54:58;16.41;81.81
66670;DHT22;53568;52.164;4.472;2023-10-19T04:57:24;16.38;81.54
66670;DHT22;53568;52.164;4.472;2023-10-19T04:59:51;16.42;81.61
66670;DHT22;53568;52.164;4.472;2023-10-19T05:02:17;16.46;81.39
66670;DHT22;53568;52.164;4.472;2023-10-19T05:04:43;16.53;80.87
66670;DHT22;53568;52.164;4.472;2023-10-19T05:07:09;16.46;80.80
66670;DHT22;53568;52.164;4.472;2023-10-19T05:09:38;16.39;80.94
66670;DHT22;53568;52.164;4.472;2023-10-19T05:12:06;16.29;81.16
66670;DHT22;53568;52.164;4.472;2023-10-19T05:14:42;16.38;81.16
66670;DHT22;53568;52.164;4.472;2023-10-19T05:17:08;16.28;81.12
66670;DHT22;53568;52.164;4.472;2023-10-19T05:19:39;16.28;81.35
66670;DHT22;53568;52.164;4.472;2023-10-19T05:22:07;16.35;81.29
66670;DHT22;53568;52.164;4.472;2023-10-19T05:24:33;16.16;81.54
66670;DHT22;53568;52.164;4.472;2023-10-19T05:26:59;16.29;81.29
66670;DHT22;53568;52.164;4.472;2023-10-19T05:29:25;16.36;81.23
66670;DHT22;53568;52.164;4.472;2023-10-19T05:31:51;16.33;81.22
66670;DHT22;53568;52.164;4.472;2023-10-19T05:34:26;16.35;81.26
66670;DHT22;53568;52.164;4.472;2023-10-19T05:37:02;16.42;81.17
66670;DHT22;53568;52.164;4.472;2023-10-19T05:39:31;16.48;80.94
66670;DHT22;53568;52.164;4.472;2023-10-19T05:41:59;16.49;80.90
66670;DHT22;53568;52.164;4.472;2023-10-19T05:44:28;16.52;80.56
66670;DHT22;53568;52.164;4.472;2023-10-19T05:46:55;16.48;80.60
66670;DHT22;53568;52.164;4.472;2023-10-19T05:49:22;16.51;80.80
66670;DHT22;53568;52.164;4.472;2023-10-19T05:51:50;16.51;80.56
66670;DHT22;53568;52.164;4.472;2023-10-19T05:54:15;16.49;80.70
66670;DHT22;53568;52.164;4.472;2023-10-19T05:56:42;16.45;80.68
66670;DHT22;53568;52.164;4.472;2023-10-19T05:59:08;16.48;80.66
66670;DHT22;53568;52.164;4.472;2023-10-19T06:01:36;16.45;80.67
66670;DHT22;53568;52.164;4.472;2023-10-19T06:04:03;16.44;80.83
66670;DHT22;53568;52.164;4.472;2023-10-19T06:06:28;16.38;80.83
66670;DHT22;53568;52.164;4.472;2023-10-19T06:08:54;16.41;80.96
66670;DHT22;53568;52.164;4.472;2023-10-19T06:11:23;16.39;80.97
66670;DHT22;53568;52.164;4.472;2023-10-19T06:13:48;16.42;81.04
66670;DHT22;53568;52.164;4.472;2023-10-19T06:16:14;16.48;80.79
66670;DHT22;53568;52.164;4.472;2023-10-19T06:18:40;16.48;80.89
66670;DHT22;53568;52.164;4.472;2023-10-19T06:21:05;16.42;80.87
66670;DHT22;53568;52.164;4.472;2023-10-19T06:23:31;16.39;80.99
66670;DHT22;53568;52.164;4.472;2023-10-19T06:25:57;16.38;81.12
66670;DHT22;53568;52.164;4.472;2023-10-19T06:28:23;16.49;80.95
66670;DHT22;53568;52.164;4.472;2023-10-19T06:30:48;16.44;81.12
66670;DHT22;53568;52.164;4.472;2023-10-19T06:33:15;16.45;81.22
66670;DHT22;53568;52.164;4.472;2023-10-19T06:35:41;16.42;81.40
66670;DHT22;53568;52.164;4.472;2023-10-19T06:38:06;16.49;81.38
66670;DHT22;53568;52.164;4.472;2023-10-19T06:40:35;16.48;81.27
66670;DHT22;53568;52.164;4.472;2023-10-19T06:43:04;16.49;81.46
66670;DHT22;53568;52.164;4.472;2023-10-19T06:45:31;16.48;81.41
66670;DHT22;53568;52.164;4.472;2023-10-19T06:47:57;16.36;81.65
66670;DHT22;53568;52.164;4.472;2023-10-19T06:50:24;16.33;81.95
66670;DHT22;53568;52.164;4.472;2023-10-19T06:52:51;16.45;81.60
66670;DHT22;53568;52.164;4.472;2023-10-19T06:55:18;16.46;81.59
66670;DHT22;53568;52.164;4.472;2023-10-19T06:57:54;16.36;81.91
66670;DHT22;53568;52.164;4.472;2023-10-19T07:00:25;16.35;82.16
66670;DHT22;53568;52.164;4.472;2023-10-19T07:02:56;16.32;82.36
66670;DHT22;53568;52.164;4.472;2023-10-19T07:05:22;16.28;82.59
66670;DHT22;53568;52.164;4.472;2023-10-19T07:07:50;16.45;82.21
66670;DHT22;53568;52.164;4.472;2023-10-19T07:10:18;16.26;82.73
66670;DHT22;53568;52.164;4.472;2023-10-19T07:12:46;16.38;82.59
66670;DHT22;53568;52.164;4.472;2023-10-19T07:15:13;16.38;82.53
66670;DHT22;53568;52.164;4.472;2023-10-19T07:17:45;16.49;82.32
66670;DHT22;53568;52.164;4.472;2023-10-19T07:20:13;16.53;82.18
66670;DHT22;53568;52.164;4.472;2023-10-19T07:22:53;16.51;82.23
66670;DHT22;53568;52.164;4.472;2023-10-19T07:25:19;16.46;82.42
66670;DHT22;53568;52.164;4.472;2023-10-19T07:27:51;16.58;82.40
66670;DHT22;53568;52.164;4.472;2023-10-19T07:30:18;16.49;82.42
66670;DHT22;53568;52.164;4.472;2023-10-19T07:32:52;16.51;82.45
66670;DHT22;53568;52.164;4.472;2023-10-19T07:35:24;16.55;82.39
66670;DHT22;53568;52.164;4.472;2023-10-19T07:37:52;16.69;81.98
66670;DHT22;53568;52.164;4.472;2023-10-19T07:40:18;16.70;81.80
66670;DHT22;53568;52.164;4.472;2023-10-19T07:42:44;16.73;81.93
66670;DHT22;53568;52.164;4.472;2023-10-19T07:45:10;16.69;82.04
66670;DHT22;53568;52.164;4.472;2023-10-19T07:47:39;16.65;82.11
66670;DHT22;53568;52.164;4.472;2023-10-19T07:50:08;16.76;81.96
66670;DHT22;53568;52.164;4.472;2023-10-19T07:52:44;16.68;82.19
66670;DHT22;53568;52.164;4.472;2023-10-19T07:55:10;16.79;81.98
66670;DHT22;53568;52.164;4.472;2023-10-19T07:57:36;16.90;81.59
66670;DHT22;53568;52.164;4.472;2023-10-19T08:00:02;16.90;81.53
66670;DHT22;53568;52.164;4.472;2023-10-19T08:02:29;16.90;81.67
66670;DHT22;53568;52.164;4.472;2023-10-19T08:04:55;16.97;81.37
66670;DHT22;53568;52.164;4.472;2023-10-19T08:07:21;16.94;81.48
66670;DHT22;53568;52.164;4.472;2023-10-19T08:09:47;17.02;81.18
66670;DHT22;53568;52.164;4.472;2023-10-19T08:12:13;16.97;81.30
66670;DHT22;53568;52.164;4.472;2023-10-19T08:14:39;16.99;81.50
66670;DHT22;53568;52.164;4.472;2023-10-19T08:17:05;16.94;81.37
66670;DHT22;53568;52.164;4.472;2023-10-19T08:19:31;17.13;81.17
66670;DHT22;53568;52.164;4.472;2023-10-19T08:21:57;17.14;80.98
66670;DHT22;53568;52.164;4.472;2023-10-19T08:24:23;17.20;80.92
66670;DHT22;53568;52.164;4.472;2023-10-19T08:26:49;17.23;80.89
66670;DHT22;53568;52.164;4.472;2023-10-19T08:29:16;17.28;80.67
66670;DHT22;53568;52.164;4.472;2023-10-19T08:31:44;17.26;80.75
66670;DHT22;53568;52.164;4.472;2023-10-19T08:34:13;17.30;80.69
66670;DHT22;53568;52.164;4.472;2023-10-19T08:36:39;17.37;80.40
66670;DHT22;53568;52.164;4.472;2023-10-19T08:39:09;17.46;80.33
66670;DHT22;53568;52.164;4.472;2023-10-19T08:41:38;17.48;80.22
66670;DHT22;53568;52.164;4.472;2023-10-19T08:44:08;17.53;80.13
66670;DHT22;53568;52.164;4.472;2023-10-19T08:46:40;17.55;79.86
66670;DHT22;53568;52.164;4.472;2023-10-19T08:49:11;17.54;79.90
66670;DHT22;53568;52.164;4.472;2023-10-19T08:51:39;17.58;79.84
66670;DHT22;53568;52.164;4.472;2023-10-19T08:54:05;17.58;79.74
66670;DHT22;53568;52.164;4.472;2023-10-19T08:56:32;17.64;79.75
66670;DHT22;53568;52.164;4.472;2023-10-19T08:59:00;17.68;79.59
66670;DHT22;53568;52.164;4.472;2023-10-19T09:01:28;17.73;79.43
66670;DHT22;53568;52.164;4.472;2023-10-19T09:03:58;17.74;79.46
66670;DHT22;53568;52.164;4.472;2023-10-19T09:06:24;17.74;79.48
66670;DHT22;53568;52.164;4.472;2023-10-19T09:08:50;17.73;79.83
66670;DHT22;53568;52.164;4.472;2023-10-19T09:11:15;17.77;79.80
66670;DHT22;53568;52.164;4.472;2023-10-19T09:13:50;17.87;79.62
66670;DHT22;53568;52.164;4.472;2023-10-19T09:16:18;17.92;79.34
66670;DHT22;53568;52.164;4.472;2023-10-19T09:18:44;17.94;79.07
66670;DHT22;53568;52.164;4.472;2023-10-19T09:21:16;17.95;79.30
66670;DHT22;53568;52.164;4.472;2023-10-19T09:23:53;18.02;79.28
66670;DHT22;53568;52.164;4.472;2023-10-19T09:26:20;18.00;78.98
66670;DHT22;53568;52.164;4.472;2023-10-19T09:28:51;17.97;79.27
66670;DHT22;53568;52.164;4.472;2023-10-19T09:31:17;18.11;78.80
66670;DHT22;53568;52.164;4.472;2023-10-19T09:33:45;18.16;78.56
66670;DHT22;53568;52.164;4.472;2023-10-19T09:36:13;18.19;78.48
66670;DHT22;53568;52.164;4.472;2023-10-19T09:38:49;18.25;78.61
66670;DHT22;53568;52.164;4.472;2023-10-19T09:41:23;18.35;78.50
66670;DHT22;53568;52.164;4.472;2023-10-19T09:44:01;18.39;78.13
66670;DHT22;53568;52.164;4.472;2023-10-19T09:46:32;18.42;78.04
66670;DHT22;53568;52.164;4.472;2023-10-19T09:49:02;18.45;78.07
66670;DHT22;53568;52.164;4.472;2023-10-19T09:51:28;18.48;77.89
66670;DHT22;53568;52.164;4.472;2023-10-19T09:54:32;18.42;77.94
66670;DHT22;53568;52.164;4.472;2023-10-19T09:57:03;18.41;78.23
66670;DHT22;53568;52.164;4.472;2023-10-19T09:59:40;18.39;78.05
66670;DHT22;53568;52.164;4.472;2023-10-19T10:04:33;18.48;77.98
66670;DHT22;53568;52.164;4.472;2023-10-19T10:06:59;18.48;78.17
66670;DHT22;53568;52.164;4.472;2023-10-19T10:09:29;18.51;78.21
66670;DHT22;53568;52.164;4.472;2023-10-19T10:11:55;18.53;78.11
66670;DHT22;53568;52.164;4.472;2023-10-19T10:14:28;18.56;78.01
66670;DHT22;53568;52.164;4.472;2023-10-19T10:17:01;18.46;77.85
66670;DHT22;53568;52.164;4.472;2023-10-19T10:19:27;18.38;78.36
66670;DHT22;53568;52.164;4.472;2023-10-19T10:22:09;18.41;78.34
66670;DHT22;53568;52.164;4.472;2023-10-19T10:24:44;18.39;78.20
66670;DHT22;53568;52.164;4.472;2023-10-19T10:27:10;18.43;78.01
66670;DHT22;53568;52.164;4.472;2023-10-19T10:30:00;18.45;77.83
66670;DHT22;53568;52.164;4.472;2023-10-19T10:38:07;18.63;77.81
66670;DHT22;53568;52.164;4.472;2023-10-19T10:40:48;18.70;77.56
66670;DHT22;53568;52.164;4.472;2023-10-19T10:43:14;18.79;77.56
66670;DHT22;53568;52.164;4.472;2023-10-19T10:45:40;18.96;77.18
66670;DHT22;53568;52.164;4.472;2023-10-19T10:48:14;19.06;77.22
66670;DHT22;53568;52.164;4.472;2023-10-19T10:50:40;19.20;77.10
66670;DHT22;53568;52.164;4.472;2023-10-19T10:53:08;19.30;76.68
66670;DHT22;53568;52.164;4.472;2023-10-19T10:55:37;19.31;76.83
66670;DHT22;53568;52.164;4.472;2023-10-19T10:58:03;19.34;76.87
66670;DHT22;53568;52.164;4.472;2023-10-19T11:00:28;19.38;76.29
66670;DHT22;53568;52.164;4.472;2023-10-19T11:03:01;19.40;75.72
66670;DHT22;53568;52.164;4.472;2023-10-19T11:05:26;19.43;75.67
66670;DHT22;53568;52.164;4.472;2023-10-19T11:08:04;19.50;75.60
66670;DHT22;53568;52.164;4.472;2023-10-19T11:10:30;19.51;75.55
66670;DHT22;53568;52.164;4.472;2023-10-19T11:13:07;19.55;75.38
66670;DHT22;53568;52.164;4.472;2023-10-19T11:15:34;19.55;75.49
66670;DHT22;53568;52.164;4.472;2023-10-19T11:18:00;19.57;75.58
66670;DHT22;53568;52.164;4.472;2023-10-19T11:20:28;19.65;75.69
66670;DHT22;53568;52.164;4.472;2023-10-19T11:22:55;19.73;75.78
66670;DHT22;53568;52.164;4.472;2023-10-19T11:25:25;19.91;75.37
66670;DHT22;53568;52.164;4.472;2023-10-19T11:27:55;19.94;74.96
66670;DHT22;53568;52.164;4.472;2023-10-19T11:30:41;20.14;74.54
66670;DHT22;53568;52.164;4.472;2023-10-19T11:33:07;20.24;73.95
66670;DHT22;53568;52.164;4.472;2023-10-19T11:35:33;20.28;73.64
66670;DHT22;53568;52.164;4.472;2023-10-19T11:38:00;20.28;73.24
66670;DHT22;53568;52.164;4.472;2023-10-19T11:40:28;20.22;72.74
66670;DHT22;53568;52.164;4.472;2023-10-19T11:42:54;20.11;72.74
66670;DHT22;53568;52.164;4.472;2023-10-19T11:45:25;20.07;72.75
66670;DHT22;53568;52.164;4.472;2023-10-19T11:47:52;20.04;73.05
66670;DHT22;53568;52.164;4.472;2023-10-19T11:50:18;19.97;73.10
66670;DHT22;53568;52.164;4.472;2023-10-19T11:52:45;19.98;73.21
66670;DHT22;53568;52.164;4.472;2023-10-19T11:55:15;19.97;73.14
66670;DHT22;53568;52.164;4.472;2023-10-19T11:57:42;19.91;73.16
66670;DHT22;53568;52.164;4.472;2023-10-19T12:00:13;19.88;73.56
66670;DHT22;53568;52.164;4.472;2023-10-19T12:02:47;19.79;73.73
66670;DHT22;53568;52.164;4.472;2023-10-19T12:05:12;19.68;73.96
66670;DHT22;53568;52.164;4.472;2023-10-19T12:07:39;19.61;74.20
66670;DHT22;53568;52.164;4.472;2023-10-19T12:10:06;19.61;74.22
66670;DHT22;53568;52.164;4.472;2023-10-19T12:12:33;19.55;74.40
66670;DHT22;53568;52.164;4.472;2023-10-19T12:14:59;19.51;74.63
66670;DHT22;53568;52.164;4.472;2023-10-19T12:17:25;19.49;74.68
66670;DHT22;53568;52.164;4.472;2023-10-19T12:19:55;19.40;74.86
66670;DHT22;53568;52.164;4.472;2023-10-19T12:22:21;19.38;75.01
66670;DHT22;53568;52.164;4.472;2023-10-19T12:24:47;19.41;75.02
66670;DHT22;53568;52.164;4.472;2023-10-19T12:27:14;19.44;74.98
66670;DHT22;53568;52.164;4.472;2023-10-19T12:29:39;19.37;75.27
66670;DHT22;53568;52.164;4.472;2023-10-19T12:32:06;19.37;75.47
66670;DHT22;53568;52.164;4.472;2023-10-19T12:34:31;19.35;75.69
66670;DHT22;53568;52.164;4.472;2023-10-19T12:36:57;19.33;75.84
66670;DHT22;53568;52.164;4.472;2023-10-19T12:39:24;19.30;76.02
66670;DHT22;53568;52.164;4.472;2023-10-19T12:42:12;19.31;76.15
66670;DHT22;53568;52.164;4.472;2023-10-19T12:44:40;19.26;76.39
66670;DHT22;53568;52.164;4.472;2023-10-19T12:47:10;19.33;76.26
66670;DHT22;53568;52.164;4.472;2023-10-19T12:49:42;19.28;76.59
66670;DHT22;53568;52.164;4.472;2023-10-19T12:52:08;19.30;76.71
66670;DHT22;53568;52.164;4.472;2023-10-19T12:54:37;19.27;76.95
66670;DHT22;53568;52.164;4.472;2023-10-19T12:57:04;19.26;77.25
66670;DHT22;53568;52.164;4.472;2023-10-19T12:59:36;19.24;77.25
66670;DHT22;53568;52.164;4.472;2023-10-19T13:02:05;19.27;77.22
66670;DHT22;53568;52.164;4.472;2023-10-19T13:04:34;19.24;77.27
66670;DHT22;53568;52.164;4.472;2023-10-19T13:06:59;19.21;77.42
66670;DHT22;53568;52.164;4.472;2023-10-19T13:09:26;19.19;77.40
66670;DHT22;53568;52.164;4.472;2023-10-19T13:11:59;19.13;77.41
66670;DHT22;53568;52.164;4.472;2023-10-19T13:14:25;19.11;77.50
66670;DHT22;53568;52.164;4.472;2023-10-19T13:16:51;19.09;77.71
66670;DHT22;53568;52.164;4.472;2023-10-19T13:19:18;19.04;78.13
66670;DHT22;53568;52.164;4.472;2023-10-19T13:21:47;19.04;77.99
66670;DHT22;53568;52.164;4.472;2023-10-19T13:24:14;19.07;77.85
66670;DHT22;53568;52.164;4.472;2023-10-19T13:26:42;19.09;77.82
66670;DHT22;53568;52.164;4.472;2023-10-19T13:29:11;19.04;77.90
66670;DHT22;53568;52.164;4.472;2023-10-19T13:31:37;19.02;78.01
66670;DHT22;53568;52.164;4.472;2023-10-19T13:34:03;19.02;78.07
66670;DHT22;53568;52.164;4.472;2023-10-19T13:36:30;19.03;77.90
66670;DHT22;53568;52.164;4.472;2023-10-19T13:38:55;18.97;78.08
66670;DHT22;53568;52.164;4.472;2023-10-19T13:41:21;18.96;78.17
66670;DHT22;53568;52.164;4.472;2023-10-19T13:43:47;18.97;78.18
66670;DHT22;53568;52.164;4.472;2023-10-19T13:46:14;18.99;78.01
66670;DHT22;53568;52.164;4.472;2023-10-19T13:48:39;18.93;78.06
66670;DHT22;53568;52.164;4.472;2023-10-19T13:51:05;18.96;77.79
66670;DHT22;53568;52.164;4.472;2023-10-19T13:53:40;18.93;77.95
66670;DHT22;53568;52.164;4.472;2023-10-19T13:56:10;18.93;78.10
66670;DHT22;53568;52.164;4.472;2023-10-19T13:58:37;19.02;77.83
66670;DHT22;53568;52.164;4.472;2023-10-19T14:01:07;19.02;77.83
66670;DHT22;53568;52.164;4.472;2023-10-19T14:03:34;19.10;77.67
66670;DHT22;53568;52.164;4.472;2023-10-19T14:06:00;19.09;77.74
66670;DHT22;53568;52.164;4.472;2023-10-19T14:08:25;19.07;77.63
66670;DHT22;53568;52.164;4.472;2023-10-19T14:10:51;18.93;77.98
66670;DHT22;53568;52.164;4.472;2023-10-19T14:13:16;18.90;78.40
66670;DHT22;53568;52.164;4.472;2023-10-19T14:15:42;18.93;78.36
66670;DHT22;53568;52.164;4.472;2023-10-19T14:18:09;18.86;78.78
66670;DHT22;53568;52.164;4.472;2023-10-19T14:20:35;18.92;78.57
66670;DHT22;53568;52.164;4.472;2023-10-19T14:23:04;18.93;78.43
66670;DHT22;53568;52.164;4.472;2023-10-19T14:25:30;18.89;78.47
66670;DHT22;53568;52.164;4.472;2023-10-19T14:27:56;18.93;78.40
66670;DHT22;53568;52.164;4.472;2023-10-19T14:30:27;18.93;78.49
66670;DHT22;53568;52.164;4.472;2023-10-19T14:32:55;18.92;78.43
66670;DHT22;53568;52.164;4.472;2023-10-19T14:35:22;18.95;78.20
66670;DHT22;53568;52.164;4.472;2023-10-19T14:37:50;18.90;78.30
66670;DHT22;53568;52.164;4.472;2023-10-19T14:40:21;18.85;78.54
66670;DHT22;53568;52.164;4.472;2023-10-19T14:42:49;18.80;78.82
66670;DHT22;53568;52.164;4.472;2023-10-19T14:45:17;18.73;79.04
66670;DHT22;53568;52.164;4.472;2023-10-19T14:47:47;18.69;79.19
66670;DHT22;53568;52.164;4.472;2023-10-19T14:50:15;18.67;79.19
66670;DHT22;53568;52.164;4.472;2023-10-19T14:52:45;18.67;79.28
66670;DHT22;53568;52.164;4.472;2023-10-19T14:55:12;18.69;79.21
66670;DHT22;53568;52.164;4.472;2023-10-19T14:57:42;18.62;79.28
66670;DHT22;53568;52.164;4.472;2023-10-19T15:00:09;18.55;79.54
66670;DHT22;53568;52.164;4.472;2023-10-19T15:02:51;18.56;79.70
66670;DHT22;53568;52.164;4.472;2023-10-19T15:05:17;18.52;79.99
66670;DHT22;53568;52.164;4.472;2023-10-19T15:07:45;18.52;79.91
66670;DHT22;53568;52.164;4.472;2023-10-19T15:10:12;18.51;80.22
66670;DHT22;53568;52.164;4.472;2023-10-19T15:12:41;18.43;80.38
66670;DHT22;53568;52.164;4.472;2023-10-19T15:15:10;18.52;80.30
66670;DHT22;53568;52.164;4.472;2023-10-19T15:17:43;18.39;80.69
66670;DHT22;53568;52.164;4.472;2023-10-19T15:20:13;18.39;81.00
66670;DHT22;53568;52.164;4.472;2023-10-19T15:22:40;18.41;80.50
66670;DHT22;53568;52.164;4.472;2023-10-19T15:25:07;18.46;80.37
66670;DHT22;53568;52.164;4.472;2023-10-19T15:27:42;18.42;80.51
66670;DHT22;53568;52.164;4.472;2023-10-19T15:30:10;18.48;80.36
66670;DHT22;53568;52.164;4.472;2023-10-19T15:32:39;18.45;80.41
66670;DHT22;53568;52.164;4.472;2023-10-19T15:35:10;18.51;80.28
66670;DHT22;53568;52.164;4.472;2023-10-19T15:37:38;18.43;80.38
66670;DHT22;53568;52.164;4.472;2023-10-19T15:40:04;18.51;80.30
66670;DHT22;53568;52.164;4.472;2023-10-19T15:42:30;18.53;80.05
66670;DHT22;53568;52.164;4.472;2023-10-19T15:44:56;18.52;80.04
66670;DHT22;53568;52.164;4.472;2023-10-19T15:47:21;18.53;79.96
66670;DHT22;53568;52.164;4.472;2023-10-19T15:49:51;18.56;80.01